Mesa Verde National Park, Colorado
Current Conditions -  °F | °C
As of 1:53 AM on Wednesday 28 Jan 2015 (Local Time) from KCEZ Reporting Station
Clear Clear  
Wind Chill: 22°   Ceiling: Unl
Heat Index: 29°   Visibility: 10mi
Dew Point: 27°   Wind: 7mph
Humidity: 92%   Direction: 90°E
Pressure: 30.28"   Gusts: NA
Location:  37.1877°N, 108.492°W
Report Text: KCEZ 280853Z AUTO 09006KT 10SM CLR M02/M03 A3028 RMK AO2 SLP233 T10171028 56004
Loading
Personal Weather Stations






























Interactive Weather Map New forecast layout! Learn more

10-Day Weather Forecast

Advertisements
Track Severe Weather on mobile